Time;durP1;ratioP1;P1;durP2;ratioP2;P2;SDS_P1;SDS_P2;PMS_P1;PMS_P2;Temp;Humidity;BMP_temperature;BMP_pressure;BME280_temperature;BME280_humidity;BME280_pressure;Samples;Min_cycle;Max_cycle;Signal;HPM_P1;HPM_P2
2021/04/10 00:01:15;;;;;;;9.98;5.63;;;;;;;11.74;100.00;100755.50;4137952;28;20034;-74
2021/04/10 00:03:17;;;;;;;8.15;5.90;;;;;;;11.81;100.00;100753.88;4138238;28;20041;-74
2021/04/10 00:05:24;;;;;;;14.25;6.43;;;;;;;11.56;100.00;100752.13;4138222;28;20031;-74
2021/04/10 00:07:25;;;;;;;17.40;7.13;;;;;;;11.64;100.00;100746.88;4138133;28;20401;-74
2021/04/10 00:09:26;;;;;;;16.60;7.10;;;;;;;11.77;100.00;100744.59;4137878;28;20027;-74
2021/04/10 00:11:28;;;;;;;16.40;6.95;;;;;;;11.78;100.00;100737.50;4137982;28;20402;-74
2021/04/10 00:13:29;;;;;;;20.55;7.85;;;;;;;11.58;100.00;100734.31;4138056;28;20389;-74
2021/04/10 00:15:31;;;;;;;17.63;7.57;;;;;;;11.56;100.00;100741.56;4137837;28;20070;-74
2021/04/10 00:17:32;;;;;;;19.63;8.05;;;;;;;11.66;100.00;100744.88;4137594;28;20545;-74
2021/04/10 00:19:34;;;;;;;21.08;7.22;;;;;;;11.68;100.00;100727.06;4138153;28;20034;-75
2021/04/10 00:21:35;;;;;;;16.67;7.00;;;;;;;11.64;100.00;100721.28;4137984;28;20057;-75
2021/04/10 00:23:42;;;;;;;13.65;6.72;;;;;;;11.76;100.00;100719.19;4137863;28;20038;-75
2021/04/10 00:25:44;;;;;;;18.08;6.85;;;;;;;11.66;100.00;100713.19;4137556;28;20037;-75
2021/04/10 00:27:45;;;;;;;12.00;6.90;;;;;;;11.66;100.00;100713.19;4137863;28;20039;-75
2021/04/10 00:29:46;;;;;;;14.45;6.22;;;;;;;11.65;100.00;100700.94;4137567;28;20117;-75
2021/04/10 00:31:48;;;;;;;18.27;7.57;;;;;;;11.69;100.00;100707.56;4137528;28;20508;-75
2021/04/10 00:33:49;;;;;;;15.30;8.30;;;;;;;11.69;100.00;100704.94;4137499;28;20034;-75
2021/04/10 00:35:50;;;;;;;18.77;7.25;;;;;;;11.61;100.00;100703.13;4137753;28;20444;-75
2021/04/10 00:37:51;;;;;;;12.55;7.82;;;;;;;11.69;100.00;100707.56;4136320;28;20113;-75
2021/04/10 00:39:53;;;;;;;20.30;6.72;;;;;;;11.66;100.00;100705.25;4137344;28;20125;-74
2021/04/10 00:41:54;;;;;;;13.60;7.03;;;;;;;11.64;100.00;100701.97;4137386;28;20084;-74
2021/04/10 00:43:55;;;;;;;14.82;6.65;;;;;;;11.57;100.00;100701.78;4137523;28;20502;-74
2021/04/10 00:45:56;;;;;;;13.45;6.50;;;;;;;11.60;100.00;100708.56;4137272;28;20041;-74
2021/04/10 00:47:58;;;;;;;15.52;8.85;;;;;;;11.53;100.00;100707.53;4137238;28;20406;-74
2021/04/10 00:49:59;;;;;;;16.77;7.75;;;;;;;11.62;100.00;100703.91;4137294;28;20026;-74
2021/04/10 00:52:02;;;;;;;13.23;7.22;;;;;;;11.62;100.00;100702.13;4137470;28;20046;-75
2021/04/10 00:54:03;;;;;;;17.02;7.03;;;;;;;11.57;100.00;100701.78;4152257;28;20034;-74
2021/04/10 00:56:07;;;;;;;16.80;7.35;;;;;;;11.64;100.00;100684.31;4125077;28;20066;-74
2021/04/10 00:58:08;;;;;;;12.18;5.82;;;;;;;11.72;100.00;100694.06;4121124;28;20080;-74
2021/04/10 01:00:10;;;;;;;14.48;6.13;;;;;;;11.76;100.00;100697.22;4121181;28;20035;-74
2021/04/10 01:02:11;;;;;;;14.40;6.20;;;;;;;11.66;100.00;100699.97;4120864;28;20062;-74
2021/04/10 01:04:13;;;;;;;13.13;6.43;;;;;;;11.65;100.00;100700.94;4121024;28;20027;-74
2021/04/10 01:06:14;;;;;;;16.77;7.05;;;;;;;11.68;100.00;100705.13;4121076;28;20026;-75
2021/04/10 01:08:16;;;;;;;15.20;6.30;;;;;;;11.58;100.00;100702.63;4121253;28;20039;-74
2021/04/10 01:10:17;;;;;;;10.32;6.00;;;;;;;11.54;100.00;100707.41;4120932;28;20027;-74
2021/04/10 01:12:27;;;;;;;14.13;5.60;;;;;;;11.56;100.00;100701.94;4121186;28;20035;-74
2021/04/10 01:14:46;;;;;;;14.45;6.72;;;;;;;11.61;100.00;100697.00;4125011;28;20030;-74
2021/04/10 01:16:54;;;;;;;15.73;6.18;;;;;;;11.62;100.00;100702.13;4136767;28;20039;-74
2021/04/10 01:19:05;;;;;;;14.27;5.47;;;;;;;11.56;100.00;100701.94;4136971;28;20031;-74
2021/04/10 01:21:18;;;;;;;12.13;5.43;;;;;;;11.59;100.00;100698.97;4137007;28;20465;-74
2021/04/10 01:23:31;;;;;;;13.95;5.60;;;;;;;11.52;100.00;100701.47;4136859;28;20405;-74
2021/04/10 01:26:04;;;;;;;11.50;5.55;;;;;;;11.49;100.00;100699.13;4136785;28;20482;-74
2021/04/10 01:28:16;;;;;;;13.93;5.65;;;;;;;11.46;100.00;100706.56;4136913;28;20037;-74
2021/04/10 01:30:20;;;;;;;16.00;5.88;;;;;;;11.42;100.00;100705.22;4136608;28;20117;-74
2021/04/10 01:32:24;;;;;;;16.80;5.28;;;;;;;11.35;100.00;100701.59;4136680;28;20023;-74
2021/04/10 01:34:48;;;;;;;9.20;4.70;;;;;;;11.26;100.00;100698.09;4136574;28;20038;-75
2021/04/10 01:36:50;;;;;;;13.82;7.05;;;;;;;11.34;100.00;100703.41;4136706;28;20450;-75
2021/04/10 01:38:53;;;;;;;12.52;5.95;;;;;;;11.49;100.00;100696.50;4136466;28;20062;-75
2021/04/10 01:41:01;;;;;;;14.23;6.30;;;;;;;11.45;100.00;100691.69;4136339;28;20564;-75
2021/04/10 01:43:03;;;;;;;12.98;5.75;;;;;;;11.42;100.00;100695.50;4136530;28;20034;-75
2021/04/10 01:45:05;;;;;;;12.27;6.38;;;;;;;11.35;100.00;100683.09;4136429;28;20089;-74
2021/04/10 01:47:11;;;;;;;15.15;7.40;;;;;;;11.23;100.00;100684.41;4134914;28;20038;-74
2021/04/10 01:49:12;;;;;;;16.88;6.35;;;;;;;11.23;100.00;100685.19;4136317;28;20030;-74
2021/04/10 01:51:16;;;;;;;15.23;6.18;;;;;;;11.25;100.00;100682.41;4136142;28;20030;-74
2021/04/10 01:53:19;;;;;;;15.35;6.10;;;;;;;11.33;100.00;100679.78;4136371;28;20393;-74
2021/04/10 01:55:22;;;;;;;11.20;5.60;;;;;;;11.34;100.00;100676.16;4136366;28;20037;-74
2021/04/10 01:57:23;;;;;;;13.68;5.85;;;;;;;11.41;100.00;100677.19;4136356;28;20556;-74
2021/04/10 01:59:26;;;;;;;13.00;6.28;;;;;;;11.37;100.00;100667.91;4136416;28;20050;-74
2021/04/10 02:01:28;;;;;;;14.73;5.50;;;;;;;11.30;100.00;100657.16;4134891;28;20037;-74
2021/04/10 02:03:31;;;;;;;10.88;5.30;;;;;;;11.33;100.00;100656.00;4136326;28;20058;-75
2021/04/10 02:05:34;;;;;;;12.98;6.63;;;;;;;11.32;100.00;100651.75;4136276;28;20390;-74
2021/04/10 02:07:37;;;;;;;12.60;6.93;;;;;;;11.24;100.00;100659.63;4134819;28;20030;-74
2021/04/10 02:09:43;;;;;;;12.65;5.85;;;;;;;11.18;100.00;100647.91;4136103;28;20560;-74
2021/04/10 02:11:49;;;;;;;12.48;5.60;;;;;;;11.21;100.00;100649.38;4136301;28;20036;-75
2021/04/10 02:13:51;;;;;;;11.45;6.10;;;;;;;11.22;100.00;100646.59;4136182;28;20045;-74
2021/04/10 02:15:53;;;;;;;12.10;5.47;;;;;;;11.28;100.00;100643.31;4135942;28;20033;-74
2021/04/10 02:17:57;;;;;;;11.55;4.85;;;;;;;11.31;100.00;100644.78;4135815;28;20034;-74
2021/04/10 02:19:59;;;;;;;13.30;5.57;;;;;;;11.28;100.00;100639.84;4136135;28;20113;-74
2021/04/10 02:22:02;;;;;;;10.68;5.47;;;;;;;11.30;100.00;100637.84;4136216;28;20034;-75
2021/04/10 02:24:03;;;;;;;12.10;6.07;;;;;;;11.26;100.00;100631.25;4135950;28;20577;-74
2021/04/10 02:26:04;;;;;;;9.02;5.57;;;;;;;11.32;100.00;100636.69;4136156;28;20062;-74
2021/04/10 02:28:06;;;;;;;15.82;6.38;;;;;;;11.30;100.00;100637.84;4136096;28;20089;-74
2021/04/10 02:30:08;;;;;;;17.73;6.05;;;;;;;11.34;100.00;100639.19;4136056;28;20102;-74
2021/04/10 02:32:22;;;;;;;15.85;7.00;;;;;;;11.31;100.00;100644.78;4134409;28;20034;-74
2021/04/10 02:34:31;;;;;;;14.18;7.38;;;;;;;11.46;100.00;100640.53;4135810;28;20035;-75
2021/04/10 02:36:36;;;;;;;15.20;6.85;;;;;;;11.48;100.00;100641.19;4135968;28;20532;-75
2021/04/10 02:38:40;;;;;;;23.58;7.13;;;;;;;11.48;100.00;100646.47;4135523;28;20077;-75
2021/04/10 02:40:44;;;;;;;25.50;7.90;;;;;;;11.42;100.00;100636.53;4135980;28;20375;-75
2021/04/10 02:42:47;;;;;;;13.27;7.00;;;;;;;11.38;100.00;100640.53;4135946;28;20030;-75
2021/04/10 02:44:53;;;;;;;15.43;7.25;;;;;;;11.35;100.00;100625.81;4135940;28;20486;-75
2021/04/10 02:47:01;;;;;;;13.13;7.20;;;;;;;11.33;100.00;100626.97;4135380;28;20043;-75
2021/04/10 02:49:07;;;;;;;19.10;7.22;;;;;;;11.25;100.00;100613.75;4135831;28;20031;-75
2021/04/10 02:51:08;;;;;;;13.43;6.25;;;;;;;11.30;100.00;100622.00;4135876;28;20552;-75
2021/04/10 02:53:10;;;;;;;18.55;8.25;;;;;;;11.36;100.00;100624.00;4135599;28;20058;-75
2021/04/10 02:55:17;;;;;;;12.45;7.70;;;;;;;11.37;100.00;100617.75;4135610;28;20031;-75
2021/04/10 02:57:20;;;;;;;11.50;7.20;;;;;;;11.38;100.00;100619.41;4135696;28;20097;-75
2021/04/10 02:59:23;;;;;;;13.25;6.88;;;;;;;11.39;100.00;100613.09;4135733;28;20061;-75
2021/04/10 03:01:25;;;;;;;12.82;8.18;;;;;;;11.25;100.00;100614.59;4135600;28;20054;-75
2021/04/10 03:03:29;;;;;;;13.70;8.32;;;;;;;11.18;100.00;100602.19;4138942;28;20580;-75
2021/04/10 03:05:32;;;;;;;14.50;9.95;;;;;;;11.16;100.00;100604.19;4138947;28;20034;-75
2021/04/10 03:07:33;;;;;;;14.23;8.65;;;;;;;11.18;100.00;100583.72;4138853;28;20057;-75
2021/04/10 03:09:38;;;;;;;11.20;7.65;;;;;;;11.30;100.00;100591.16;4138912;28;20034;-75
2021/04/10 03:11:41;;;;;;;12.10;7.20;;;;;;;11.28;100.00;100587.03;4139026;28;20502;-75
2021/04/10 03:13:43;;;;;;;9.57;7.10;;;;;;;11.25;100.00;100593.47;4138938;28;20390;-75
2021/04/10 03:15:45;;;;;;;8.60;6.25;;;;;;;11.17;100.00;100582.88;4138634;28;20065;-75
2021/04/10 03:17:47;;;;;;;10.73;6.97;;;;;;;11.28;100.00;100581.75;4153641;28;20045;-75
2021/04/10 03:19:50;;;;;;;10.73;6.13;;;;;;;11.29;100.00;100578.13;4138832;28;20026;-75
2021/04/10 03:21:51;;;;;;;11.77;6.68;;;;;;;11.27;100.00;100586.19;4138681;28;20109;-75
2021/04/10 03:23:53;;;;;;;9.80;7.30;;;;;;;11.37;100.00;100584.22;4138662;28;20038;-75
2021/04/10 03:25:56;;;;;;;11.13;7.25;;;;;;;11.47;100.00;100582.22;4138724;28;20049;-75
2021/04/10 03:27:58;;;;;;;9.10;6.70;;;;;;;11.33;100.00;100574.97;4138784;28;20026;-75
2021/04/10 03:30:00;;;;;;;7.68;6.15;;;;;;;11.22;100.00;100569.19;4138506;28;20037;-75
2021/04/10 03:32:02;;;;;;;9.00;6.40;;;;;;;11.21;100.00;100564.91;4138348;28;20508;-75
2021/04/10 03:34:04;;;;;;;7.78;6.53;;;;;;;11.21;100.00;100567.53;4138442;28;20034;-75
2021/04/10 03:36:07;;;;;;;7.65;6.80;;;;;;;11.14;100.00;100554.16;4138634;28;20034;-75
2021/04/10 03:38:08;;;;;;;10.25;6.95;;;;;;;11.23;100.00;100547.09;4138567;28;20031;-75
2021/04/10 03:40:11;;;;;;;13.70;7.28;;;;;;;11.11;100.00;100555.31;4138119;28;20042;-75
2021/04/10 03:42:12;;;;;;;12.30;7.63;;;;;;;11.28;100.00;100557.97;4138532;28;20038;-75
2021/04/10 03:44:14;;;;;;;11.48;8.13;;;;;;;11.31;100.00;100550.56;4138509;28;20026;-75
2021/04/10 03:46:15;;;;;;;11.88;7.22;;;;;;;11.26;100.00;100554.69;4138123;28;20552;-75
2021/04/10 03:48:18;;;;;;;10.55;7.72;;;;;;;11.26;100.00;100552.06;4138290;28;20030;-75
2021/04/10 03:50:21;;;;;;;13.30;8.20;;;;;;;11.24;100.00;100557.47;4138397;28;20118;-75
2021/04/10 03:52:22;;;;;;;11.82;8.20;;;;;;;11.22;100.00;100543.63;4138298;28;20038;-75
2021/04/10 03:54:24;;;;;;;11.25;8.88;;;;;;;11.31;100.00;100544.44;4138158;28;20030;-75
2021/04/10 03:56:25;;;;;;;12.02;8.00;;;;;;;11.30;100.00;100548.06;4138083;28;20030;-75
2021/04/10 03:58:26;;;;;;;10.50;8.25;;;;;;;11.24;100.00;100541.63;4138065;28;20026;-75
2021/04/10 04:00:28;;;;;;;11.95;7.75;;;;;;;11.19;100.00;100540.50;4138086;28;20034;-75
2021/04/10 04:02:30;;;;;;;9.25;7.70;;;;;;;11.31;100.00;100547.91;4137877;28;20034;-75
2021/04/10 04:04:31;;;;;;;11.93;8.18;;;;;;;11.30;100.00;100543.63;4138165;28;20454;-74
2021/04/10 04:06:32;;;;;;;10.95;7.68;;;;;;;11.36;100.00;100550.06;4138103;28;20026;-74
2021/04/10 04:08:33;;;;;;;11.75;8.77;;;;;;;11.36;100.00;100536.84;4138068;28;20034;-74
2021/04/10 04:10:35;;;;;;;10.68;7.88;;;;;;;11.37;100.00;100541.16;4136667;28;20070;-74
2021/04/10 04:12:36;;;;;;;13.27;8.20;;;;;;;11.42;100.00;100533.53;4137491;28;20057;-74
2021/04/10 04:14:38;;;;;;;12.57;8.88;;;;;;;11.39;100.00;100525.94;4137955;28;20027;-74
2021/04/10 04:16:39;;;;;;;12.07;8.25;;;;;;;11.21;100.00;100527.94;4137703;28;20026;-74
2021/04/10 04:18:41;;;;;;;10.70;7.93;;;;;;;11.27;100.00;100524.63;4137878;28;20034;-74
2021/04/10 04:20:42;;;;;;;10.93;8.88;;;;;;;11.23;100.00;100520.69;4137699;28;20055;-74
2021/04/10 04:22:43;;;;;;;14.63;9.43;;;;;;;11.16;100.00;100517.06;4137847;28;20030;-74
2021/04/10 04:24:44;;;;;;;16.05;9.13;;;;;;;11.29;100.00;100522.69;4137872;28;20397;-74
2021/04/10 04:26:46;;;;;;;9.77;7.78;;;;;;;11.28;100.00;100515.72;4137723;28;20084;-74
2021/04/10 04:28:47;;;;;;;11.35;8.20;;;;;;;11.32;100.00;100517.06;4137642;28;20042;-74
2021/04/10 04:30:48;;;;;;;12.45;7.82;;;;;;;11.31;100.00;100516.22;4137744;28;20030;-74
2021/04/10 04:32:49;;;;;;;14.68;8.27;;;;;;;11.15;100.00;100505.66;4137424;28;20037;-74
2021/04/10 04:34:51;;;;;;;12.10;8.02;;;;;;;11.14;100.00;100500.56;4137633;28;20394;-74
2021/04/10 04:36:52;;;;;;;10.35;8.48;;;;;;;11.12;100.00;100500.72;4137753;28;20401;-74
2021/04/10 04:38:53;;;;;;;10.48;8.02;;;;;;;11.17;100.00;100506.31;4137353;28;20490;-74
2021/04/10 04:40:54;;;;;;;12.98;9.05;;;;;;;11.18;100.00;100501.88;4137763;28;20034;-74
2021/04/10 04:42:56;;;;;;;11.77;8.23;;;;;;;11.17;100.00;100500.25;4137611;28;20026;-74
2021/04/10 04:44:57;;;;;;;12.15;9.60;;;;;;;11.04;100.00;100506.00;4137346;28;20026;-74
2021/04/10 04:46:58;;;;;;;13.77;8.57;;;;;;;11.10;100.00;100497.44;4137234;28;20461;-74
2021/04/10 04:49:00;;;;;;;12.50;8.90;;;;;;;10.99;100.00;100495.13;4137517;28;20037;-74
2021/04/10 04:51:01;;;;;;;11.07;9.18;;;;;;;11.01;100.00;100491.31;4137603;28;20436;-74
2021/04/10 04:53:02;;;;;;;11.32;8.93;;;;;;;11.10;100.00;100492.97;4137287;28;20109;-74
2021/04/10 04:55:04;;;;;;;12.77;8.88;;;;;;;11.21;100.00;100496.25;4137403;28;20050;-74
2021/04/10 04:57:06;;;;;;;11.35;8.95;;;;;;;11.21;100.00;100493.63;4137385;28;20571;-74
2021/04/10 04:59:07;;;;;;;11.93;8.88;;;;;;;11.13;100.00;100497.09;4137445;28;20085;-74
2021/04/10 05:01:08;;;;;;;9.57;8.55;;;;;;;11.06;100.00;100493.47;4136981;28;20038;-74
2021/04/10 05:03:10;;;;;;;13.70;9.73;;;;;;;11.13;100.00;100498.91;4137280;28;20489;-74
2021/04/10 05:05:11;;;;;;;11.93;8.95;;;;;;;11.03;100.00;100491.97;4137199;28;20031;-74
2021/04/10 05:07:13;;;;;;;11.70;8.63;;;;;;;11.16;100.00;100482.75;4137022;28;20112;-74
2021/04/10 05:09:14;;;;;;;15.43;9.93;;;;;;;10.93;100.00;100479.94;4151914;28;20425;-74
2021/04/10 05:11:15;;;;;;;11.00;8.73;;;;;;;11.04;100.00;100479.63;4135881;28;20520;-74
2021/04/10 05:13:16;;;;;;;12.95;9.82;;;;;;;11.00;100.00;100483.56;4137077;28;20037;-74
2021/04/10 05:16:10;;;;;;;11.95;8.90;;;;;;;11.09;100.00;100485.22;4136953;28;20027;-74
2021/04/10 05:18:12;;;;;;;11.32;9.80;;;;;;;11.05;100.00;100479.44;4136936;28;20049;-74
2021/04/10 05:20:13;;;;;;;12.23;9.82;;;;;;;11.08;100.00;100484.38;4136997;28;20552;-74
2021/04/10 05:22:14;;;;;;;15.00;9.50;;;;;;;11.02;100.00;100487.69;4136719;28;20034;-74
2021/04/10 05:24:16;;;;;;;12.73;9.82;;;;;;;11.06;100.00;100483.72;4136355;28;20034;-74
2021/04/10 05:26:17;;;;;;;13.63;9.13;;;;;;;11.18;100.00;100481.56;4135359;28;20181;-74
2021/04/10 05:28:19;;;;;;;13.63;9.07;;;;;;;11.18;100.00;100480.75;4136828;28;20030;-74
2021/04/10 05:30:21;;;;;;;10.93;8.90;;;;;;;11.15;100.00;100484.53;4136754;28;20478;-74
2021/04/10 05:32:22;;;;;;;12.93;9.23;;;;;;;11.16;100.00;100472.19;4136604;28;20030;-74
2021/04/10 05:34:23;;;;;;;13.75;8.70;;;;;;;11.07;100.00;100472.19;4136618;28;20039;-74
2021/04/10 05:36:25;;;;;;;9.45;8.52;;;;;;;11.05;100.00;100471.50;4136763;28;20093;-74
2021/04/10 05:38:26;;;;;;;12.02;8.38;;;;;;;11.14;100.00;100468.88;4136362;28;20113;-74
2021/04/10 05:40:28;;;;;;;10.32;8.32;;;;;;;11.06;100.00;100464.41;4136714;28;20030;-75
2021/04/10 05:42:29;;;;;;;12.98;8.50;;;;;;;11.05;100.00;100460.94;4136720;28;20089;-74
2021/04/10 05:44:31;;;;;;;11.52;8.25;;;;;;;11.06;100.00;100459.16;4136597;28;20117;-74
2021/04/10 05:46:32;;;;;;;14.30;9.45;;;;;;;11.06;100.00;100459.16;4136167;28;20068;-74
2021/04/10 05:48:33;;;;;;;11.40;8.48;;;;;;;11.18;100.00;100464.91;4136587;28;20037;-74
2021/04/10 05:50:35;;;;;;;11.85;8.20;;;;;;;11.09;100.00;100466.72;4136579;28;20038;-74
2021/04/10 05:52:36;;;;;;;8.45;7.55;;;;;;;11.17;100.00;100463.28;4136568;28;20026;-74
2021/04/10 05:54:37;;;;;;;14.60;9.13;;;;;;;11.18;100.00;100455.19;4136348;28;20031;-74
2021/04/10 05:56:39;;;;;;;13.65;8.88;;;;;;;11.19;100.00;100446.28;4136486;28;20026;-74
2021/04/10 05:58:41;;;;;;;11.85;8.20;;;;;;;11.00;100.00;100452.72;4136293;28;20030;-74
2021/04/10 06:00:42;;;;;;;13.27;9.40;;;;;;;11.00;100.00;100455.34;4136428;28;20069;-74
2021/04/10 06:02:48;;;;;;;11.77;7.32;;;;;;;11.00;100.00;100452.72;4136010;28;20030;-74
2021/04/10 06:04:50;;;;;;;12.75;8.75;;;;;;;11.19;100.00;100456.84;4136196;28;20026;-74
2021/04/10 06:06:51;;;;;;;14.80;8.95;;;;;;;11.15;100.00;100449.41;4136243;28;20125;-74
2021/04/10 06:08:53;;;;;;;12.55;9.48;;;;;;;11.08;100.00;100450.06;4136492;28;20381;-74
2021/04/10 06:10:54;;;;;;;13.30;9.30;;;;;;;11.15;100.00;100452.03;4135979;28;20034;-74
2021/04/10 06:12:55;;;;;;;13.48;10.48;;;;;;;11.11;100.00;100460.28;4136131;28;20061;-74
2021/04/10 06:14:57;;;;;;;15.30;10.20;;;;;;;11.16;100.00;100448.41;4136093;28;20441;-74
2021/04/10 06:16:58;;;;;;;12.27;9.63;;;;;;;11.24;100.00;100443.13;4135790;28;20030;-74
2021/04/10 06:18:59;;;;;;;15.05;9.05;;;;;;;11.32;100.00;100451.06;4135987;28;20038;-74
2021/04/10 06:21:01;;;;;;;14.85;10.80;;;;;;;11.30;100.00;100455.66;4136052;28;20030;-74
2021/04/10 06:23:02;;;;;;;11.68;9.38;;;;;;;11.37;100.00;100449.56;4135764;28;20038;-74
2021/04/10 06:25:05;;;;;;;13.65;9.25;;;;;;;11.36;100.00;100452.34;4135919;28;20053;-74
2021/04/10 06:27:06;;;;;;;9.65;8.65;;;;;;;11.39;100.00;100446.72;4135831;28;20508;-74
2021/04/10 06:29:08;;;;;;;17.10;9.50;;;;;;;11.41;100.00;100455.31;4134598;28;20101;-74
2021/04/10 06:31:10;;;;;;;15.68;9.40;;;;;;;11.42;100.00;100451.66;4135738;28;20036;-74
2021/04/10 06:33:11;;;;;;;14.45;9.50;;;;;;;11.25;100.00;100450.88;4135834;28;20112;-74
2021/04/10 06:35:13;;;;;;;12.25;8.75;;;;;;;11.37;100.00;100443.44;4135646;28;20030;-74
2021/04/10 06:37:14;;;;;;;16.67;9.45;;;;;;;11.50;100.00;100444.53;4135589;28;20033;-74
2021/04/10 06:39:15;;;;;;;12.38;8.70;;;;;;;11.40;100.00;100437.81;4135618;28;20050;-74
2021/04/10 06:41:17;;;;;;;11.07;7.95;;;;;;;11.42;100.00;100441.94;4135746;28;20034;-74
2021/04/10 06:43:20;;;;;;;13.93;8.70;;;;;;;11.45;100.00;100446.06;4134338;28;20042;-74
2021/04/10 06:45:21;;;;;;;17.48;8.85;;;;;;;11.45;100.00;100441.59;4135670;28;20026;-73
2021/04/10 06:47:23;;;;;;;14.05;8.23;;;;;;;11.37;100.00;100435.50;4135539;28;20413;-74
2021/04/10 06:49:26;;;;;;;13.43;8.63;;;;;;;11.38;100.00;100435.31;4135534;28;20030;-73
2021/04/10 06:51:28;;;;;;;14.52;8.63;;;;;;;11.38;100.00;100437.97;4130927;28;20034;-73
2021/04/10 06:53:32;;;;;;;16.30;8.40;;;;;;;11.36;100.00;100439.13;4119082;28;20041;-73
2021/04/10 06:55:36;;;;;;;14.93;8.82;;;;;;;11.40;100.00;100437.81;4122280;28;20042;-73
2021/04/10 06:58:00;;;;;;;;;;;;;;;11.42;100.00;100435.81;4124405;28;20432;-73
2021/04/10 07:00:08;;;;;;;16.20;9.05;;;;;;;11.48;100.00;100435.16;4132878;28;19921;-72
2021/04/10 07:02:14;;;;;;;11.52;8.43;;;;;;;11.52;100.00;100428.53;4119138;28;20037;-72
2021/04/10 07:04:17;;;;;;;12.90;8.60;;;;;;;11.46;100.00;100434.50;4119318;28;20034;-73
2021/04/10 07:06:20;;;;;;;14.85;7.65;;;;;;;11.52;100.00;100436.47;4119249;28;20034;-73
2021/04/10 07:08:24;;;;;;;15.77;9.23;;;;;;;11.50;100.00;100433.16;4119525;28;20038;-72
2021/04/10 07:10:25;;;;;;;;;;;;;;;11.48;100.00;100437.78;4119891;28;20030;-73
2021/04/10 07:12:26;;;;;;;15.77;8.60;;;;;;;11.59;100.00;100418.94;4119452;28;19954;-73
2021/04/10 07:14:28;;;;;;;13.20;8.10;;;;;;;11.44;100.00;100429.38;4119476;28;20031;-73
2021/04/10 07:16:37;;;;;;;17.48;9.45;;;;;;;11.56;100.00;100419.28;4119277;28;20034;-72
2021/04/10 07:18:39;;;;;;;20.63;9.40;;;;;;;11.60;100.00;100421.41;4119205;28;20074;-72
2021/04/10 07:20:40;;;;;;;16.77;9.02;;;;;;;11.69;100.00;100419.56;4132215;28;20405;-73
2021/04/10 07:23:02;;;;;;;12.45;9.43;;;;;;;11.69;100.00;100419.56;4131261;28;20437;-73
2021/04/10 07:25:21;;;;;;;12.98;8.15;;;;;;;11.69;100.00;100416.91;4134707;28;20037;-72
2021/04/10 07:27:25;;;;;;;19.48;8.60;;;;;;;11.65;100.00;100423.53;4135117;28;20050;-72
2021/04/10 07:29:33;;;;;;;13.48;8.40;;;;;;;11.64;100.00;100427.19;4131967;28;20854;-72
2021/04/10 07:31:34;;;;;;;12.18;8.50;;;;;;;11.73;100.00;100423.56;4133326;28;20042;-71
2021/04/10 07:33:40;;;;;;;13.02;8.32;;;;;;;11.73;100.00;100428.00;4134525;28;20034;-72
2021/04/10 07:35:41;;;;;;;11.75;7.30;;;;;;;11.78;100.00;100431.78;4133369;28;20394;-72
2021/04/10 07:37:44;;;;;;;13.35;7.88;;;;;;;11.85;100.00;100432.75;4134307;28;20073;-72
2021/04/10 07:39:46;;;;;;;12.75;7.18;;;;;;;11.91;100.00;100425.97;4134370;28;20418;-72
2021/04/10 07:41:58;;;;;;;12.15;7.47;;;;;;;11.94;100.00;100444.94;4134866;28;20026;-74
2021/04/10 07:44:00;;;;;;;10.18;7.03;;;;;;;12.00;100.00;100443.44;4135112;28;20035;-72
2021/04/10 07:46:30;;;;;;;16.40;7.47;;;;;;;11.95;100.00;100436.00;4134306;28;20031;-72
2021/04/10 07:48:31;;;;;;;12.93;6.60;;;;;;;11.95;100.00;100437.81;4141809;28;20421;-74
2021/04/10 07:50:34;;;;;;;9.63;5.88;;;;;;;12.03;100.00;100435.97;4119858;28;20039;-73
2021/04/10 07:52:36;;;;;;;10.60;6.25;;;;;;;12.04;100.00;100442.91;4137946;28;20066;-73
2021/04/10 07:54:41;;;;;;;12.23;6.07;;;;;;;12.11;100.00;100437.75;4136899;28;20061;-72
2021/04/10 07:56:59;;;;;;;10.57;6.63;;;;;;;12.10;100.00;100441.38;4136492;28;20073;-73
2021/04/10 07:59:03;;;;;;;12.95;7.78;;;;;;;12.15;100.00;100439.88;4126885;28;20117;-70
2021/04/10 08:01:10;;;;;;;16.42;7.38;;;;;;;12.20;100.00;100445.47;4137355;28;20481;-70
2021/04/10 08:03:26;;;;;;;13.32;7.07;;;;;;;12.24;100.00;100448.59;4137692;28;20110;-71
2021/04/10 08:05:27;;;;;;;13.75;7.72;;;;;;;12.24;100.00;100448.59;4137708;28;20037;-70
2021/04/10 08:07:30;;;;;;;10.85;5.85;;;;;;;12.33;100.00;100446.72;4137586;28;20048;-70
2021/04/10 08:09:37;;;;;;;12.17;5.53;;;;;;;12.27;100.00;100450.06;4137380;28;20027;-70
2021/04/10 08:11:43;;;;;;;13.70;6.15;;;;;;;12.30;100.00;100453.19;4137631;28;20261;-70
2021/04/10 08:14:14;;;;;;;11.40;5.93;;;;;;;12.39;100.00;100452.16;4137592;28;20120;-71
2021/04/10 08:16:17;;;;;;;14.30;5.70;;;;;;;12.54;100.00;100445.09;4140408;28;20053;-70
2021/04/10 08:18:23;;;;;;;8.85;5.40;;;;;;;12.67;100.00;100450.63;4137491;28;20030;-70
2021/04/10 08:20:29;;;;;;;19.38;6.32;;;;;;;12.83;100.00;100460.28;4137490;28;20531;-70
2021/04/10 08:22:30;;;;;;;11.43;5.47;;;;;;;12.85;100.00;100450.31;4137341;28;20551;-70
2021/04/10 08:24:38;;;;;;;22.88;5.22;;;;;;;12.91;100.00;100454.06;4136148;28;20030;-71
2021/04/10 08:26:40;;;;;;;16.30;5.68;;;;;;;13.03;100.00;100456.13;4137061;28;20555;-71
2021/04/10 08:28:42;;;;;;;13.00;4.68;;;;;;;13.16;100.00;100460.84;4137133;28;20042;-70
2021/04/10 08:30:44;;;;;;;11.18;4.57;;;;;;;13.24;100.00;100460.78;4137414;28;20027;-70
2021/04/10 08:32:46;;;;;;;14.55;5.93;;;;;;;13.29;100.00;100461.88;4137106;28;20026;-70
2021/04/10 08:34:47;;;;;;;13.52;4.82;;;;;;;13.39;100.00;100469.56;4137126;28;20032;-70
2021/04/10 08:36:54;;;;;;;12.75;4.47;;;;;;;13.52;100.00;100472.44;4136839;28;20117;-70
2021/04/10 08:38:56;;;;;;;8.88;3.90;;;;;;;13.39;100.00;100466.09;4136839;28;20050;-71
2021/04/10 08:41:04;;;;;;;13.70;5.07;;;;;;;13.38;100.00;100467.09;4137235;28;20497;-70
2021/04/10 08:43:08;;;;;;;13.10;4.20;;;;;;;13.48;100.00;100475.59;4136939;28;20030;-71
2021/04/10 08:45:10;;;;;;;11.80;4.32;;;;;;;13.47;100.00;100472.13;4137109;28;20069;-71
2021/04/10 08:47:12;;;;;;;11.05;4.82;;;;;;;13.49;100.00;100477.25;4136763;28;20460;-71
2021/04/10 08:49:17;;;;;;;11.60;4.50;;;;;;;13.47;100.00;100473.97;4136939;28;20039;-71
2021/04/10 08:51:18;;;;;;;8.68;3.92;;;;;;;13.46;100.00;100472.31;4136887;28;20034;-71
2021/04/10 08:53:23;;;;;;;12.27;3.88;;;;;;;13.32;100.00;100474.75;4136814;28;20033;-70
2021/04/10 08:55:25;;;;;;;9.52;4.07;;;;;;;13.42;100.00;100477.16;4136740;28;20506;-71
2021/04/10 08:57:37;;;;;;;9.57;3.60;;;;;;;13.49;100.00;100475.44;4136924;28;20035;-71
2021/04/10 08:59:43;;;;;;;14.15;4.28;;;;;;;13.48;100.00;100480.91;4136567;28;20027;-71
2021/04/10 09:02:03;;;;;;;9.25;3.40;;;;;;;13.60;100.00;100480.28;4136544;28;20046;-71
2021/04/10 09:04:05;;;;;;;9.52;3.53;;;;;;;13.69;100.00;100478.38;4136872;28;20498;-70
2021/04/10 09:06:06;;;;;;;9.95;4.28;;;;;;;13.95;100.00;100478.72;4136600;28;20090;-71
2021/04/10 09:08:08;;;;;;;7.97;3.35;;;;;;;14.21;100.00;100481.72;4136629;28;20497;-71
2021/04/10 09:10:09;;;;;;;12.32;3.17;;;;;;;14.29;100.00;100483.44;4136819;28;20030;-71
2021/04/10 09:12:24;;;;;;;13.40;3.65;;;;;;;14.32;99.18;100483.91;4136705;28;20142;-71
2021/04/10 09:14:45;;;;;;;6.40;2.85;;;;;;;14.10;100.00;100482.19;4136520;28;20101;-71
2021/04/10 09:16:50;;;;;;;11.23;2.80;;;;;;;14.38;98.86;100483.19;4135911;28;20030;-71
2021/04/10 09:19:11;;;;;;;7.55;3.13;;;;;;;14.17;96.55;100483.09;4136311;28;20089;-71
2021/04/10 09:21:13;;;;;;;10.15;2.83;;;;;;;14.15;98.03;100485.13;4138435;28;20038;-71
2021/04/10 09:23:36;;;;;;;7.10;3.40;;;;;;;14.10;98.19;100487.47;4136668;28;20474;-71
2021/04/10 09:25:37;;;;;;;9.07;3.42;;;;;;;13.61;97.85;100497.00;4136338;28;20022;-71